PWSweather.com
Personal Weather Stations
Station Observations
KKYCRABO2
Cedar Creek Lake 840 Ky. Hwy. 39 N, Crab Orchard, KY 40419

Cedar Creek Lake 840 Ky. Hwy. 39 NCrab Orchard, KY 40419

Lat: 37.4736234544238, Lon: -84.5120286941528

Elevation: 952

Station Type: TYCON Power TP1080WC Pro

http://kbweather.net/

High Low Average
Temperature 66.7°F19.3°C 66.2°F19.0°C 66.4°F19.1°C
Dew Point 56.9°F13.8°C 56.5°F13.6°C 56.7°F13.7°C
Winds 1.6 mph 2.6 kmh 0.7 mph 1.1 kmh 1.0 mph ESE1.6 kmh ESE
Wind Gusts 5.4 mph8.7 kmh 3.1 mph5.0 kmh 4.0 mph6.4 kmh
Humidity 71% 70% 71%
Pressure 29.49 in998.6 mb 29.48 in998.3 mb -
Precipitation 0.00 in0.0 mm - -
Hour Temp Dew Point Humidity Winds Wind Gusts Pressure Precip Precip Rate Daily Precip Total
12:00 AM 66.9°F19.4°C 56.0°F13.3°C 68% 0.7 mph NNE1.1 kmh NNE 2.2 mph3.5 kmh 29.49 in998.6 mb 0.00 in0.0 mm 0.00 in/hr0.0 mm/hr 0.00 in0.0 mm
12:05 AM 66.9°F19.4°C 56.0°F13.3°C 68% 0.7 mph NE1.1 kmh NE 2.2 mph3.5 kmh 29.50 in999.0 mb 0.00 in0.0 mm 0.00 in/hr0.0 mm/hr 0.00 in0.0 mm
12:10 AM 66.7°F19.3°C 55.9°F13.3°C 68% Calm Calm 1.6 mph2.6 kmh 29.49 in998.6 mb 0.00 in0.0 mm 0.00 in/hr0.0 mm/hr 0.00 in0.0 mm
12:15 AM 66.7°F19.3°C 55.9°F13.3°C 68% 0.7 mph NE1.1 kmh NE 2.2 mph3.5 kmh 29.49 in998.6 mb 0.00 in0.0 mm 0.00 in/hr0.0 mm/hr 0.00 in0.0 mm
12:20 AM 66.9°F19.4°C 56.0°F13.3°C 68% 0.7 mph NNE1.1 kmh NNE 3.1 mph5.0 kmh 29.49 in998.6 mb 0.00 in0.0 mm 0.00 in/hr0.0 mm/hr 0.00 in0.0 mm
12:25 AM 67.1°F19.5°C 56.2°F13.4°C 68% 0.7 mph NNE1.1 kmh NNE 3.1 mph5.0 kmh 29.48 in998.3 mb 0.00 in0.0 mm 0.00 in/hr0.0 mm/hr 0.00 in0.0 mm
12:30 AM 66.9°F19.4°C 56.0°F13.3°C 68% 0.7 mph NE1.1 kmh NE 3.1 mph5.0 kmh 29.48 in998.3 mb 0.00 in0.0 mm 0.00 in/hr0.0 mm/hr 0.00 in0.0 mm
12:35 AM 66.9°F19.4°C 56.0°F13.3°C 68% 0.7 mph NNE1.1 kmh NNE 2.2 mph3.5 kmh 29.48 in998.3 mb 0.00 in0.0 mm 0.00 in/hr0.0 mm/hr 0.00 in0.0 mm
12:40 AM 67.1°F19.5°C 56.2°F13.4°C 68% 0.7 mph N1.1 kmh N 2.2 mph3.5 kmh 29.48 in998.3 mb 0.00 in0.0 mm 0.00 in/hr0.0 mm/hr 0.00 in0.0 mm
12:45 AM 66.9°F19.4°C 56.0°F13.3°C 68% Calm Calm 2.2 mph3.5 kmh 29.48 in998.3 mb 0.00 in0.0 mm 0.00 in/hr0.0 mm/hr 0.00 in0.0 mm
12:50 AM 66.7°F19.3°C 56.7°F13.7°C 70% Calm Calm 1.6 mph2.6 kmh 29.49 in998.6 mb 0.00 in0.0 mm 0.00 in/hr0.0 mm/hr 0.00 in0.0 mm
12:55 AM 66.4°F19.1°C 56.7°F13.7°C 71% 1.6 mph N2.6 kmh N 3.1 mph5.0 kmh 29.49 in998.6 mb 0.00 in0.0 mm 0.00 in/hr0.0 mm/hr 0.00 in0.0 mm
01:00 AM 66.2°F19.0°C 56.5°F13.6°C 71% 0.7 mph NW1.1 kmh NW 4.5 mph7.2 kmh 29.49 in998.6 mb 0.00 in0.0 mm 0.00 in/hr0.0 mm/hr 0.00 in0.0 mm
01:05 AM 66.2°F19.0°C 56.5°F13.6°C 71% 0.7 mph NNW1.1 kmh NNW 4.5 mph7.2 kmh 29.48 in998.3 mb 0.00 in0.0 mm 0.00 in/hr0.0 mm/hr 0.00 in0.0 mm
01:10 AM 66.4°F19.1°C 56.7°F13.7°C 71% 1.6 mph N2.6 kmh N 3.1 mph5.0 kmh 29.49 in998.6 mb 0.00 in0.0 mm 0.00 in/hr0.0 mm/hr 0.00 in0.0 mm
01:15 AM 66.6°F19.2°C 56.9°F13.8°C 71% 0.7 mph N1.1 kmh N 5.4 mph8.7 kmh 29.48 in998.3 mb 0.00 in0.0 mm 0.00 in/hr0.0 mm/hr 0.00 in0.0 mm
01:20 AM 66.6°F19.2°C 56.9°F13.8°C 71% 0.7 mph N1.1 kmh N 5.4 mph8.7 kmh 29.48 in998.3 mb 0.00 in0.0 mm 0.00 in/hr0.0 mm/hr 0.00 in0.0 mm
01:25 AM 66.7°F19.3°C 56.7°F13.7°C 70% 0.7 mph N1.1 kmh N 3.8 mph6.1 kmh 29.48 in998.3 mb 0.00 in0.0 mm 0.00 in/hr0.0 mm/hr 0.00 in0.0 mm
01:30 AM 66.7°F19.3°C 57.1°F13.9°C 71% Calm Calm 3.1 mph5.0 kmh 29.48 in998.3 mb 0.00 in0.0 mm 0.00 in/hr0.0 mm/hr 0.00 in0.0 mm
01:35 AM 66.4°F19.1°C 56.7°F13.7°C 71% Calm Calm 1.6 mph2.6 kmh 29.48 in998.3 mb 0.00 in0.0 mm 0.00 in/hr0.0 mm/hr 0.00 in0.0 mm
01:40 AM 66.4°F19.1°C 56.7°F13.7°C 71% 0.7 mph NNE1.1 kmh NNE 1.6 mph2.6 kmh 29.48 in998.3 mb 0.00 in0.0 mm 0.00 in/hr0.0 mm/hr 0.00 in0.0 mm
01:45 AM 66.4°F19.1°C 56.7°F13.7°C 71% 0.7 mph NE1.1 kmh NE 1.6 mph2.6 kmh 29.48 in998.3 mb 0.00 in0.0 mm 0.00 in/hr0.0 mm/hr 0.00 in0.0 mm
01:50 AM 66.4°F19.1°C 56.7°F13.7°C 71% Calm Calm 1.6 mph2.6 kmh 29.47 in998.0 mb 0.00 in0.0 mm 0.00 in/hr0.0 mm/hr 0.00 in0.0 mm
01:55 AM 66.2°F19.0°C 56.5°F13.6°C 71% Calm Calm 1.6 mph2.6 kmh 29.47 in998.0 mb 0.00 in0.0 mm 0.00 in/hr0.0 mm/hr 0.00 in0.0 mm
02:00 AM 66.2°F19.0°C 56.5°F13.6°C 71% Calm Calm 1.6 mph2.6 kmh 29.47 in998.0 mb 0.00 in0.0 mm 0.00 in/hr0.0 mm/hr 0.00 in0.0 mm
02:05 AM 66.2°F19.0°C 56.5°F13.6°C 71% Calm Calm 0.7 mph1.1 kmh 29.47 in998.0 mb 0.00 in0.0 mm 0.00 in/hr0.0 mm/hr 0.00 in0.0 mm
02:10 AM 66.2°F19.0°C 56.5°F13.6°C 71% Calm Calm 0.7 mph1.1 kmh 29.47 in998.0 mb 0.00 in0.0 mm 0.00 in/hr0.0 mm/hr 0.00 in0.0 mm
02:15 AM 65.8°F18.8°C 56.6°F13.7°C 72% Calm Calm 0.7 mph1.1 kmh 29.46 in997.6 mb 0.00 in0.0 mm 0.00 in/hr0.0 mm/hr 0.00 in0.0 mm
02:20 AM 65.8°F18.8°C 56.6°F13.7°C 72% Calm Calm 1.6 mph2.6 kmh 29.47 in998.0 mb 0.00 in0.0 mm 0.00 in/hr0.0 mm/hr 0.00 in0.0 mm
02:25 AM 65.8°F18.8°C 56.6°F13.7°C 72% Calm Calm 1.6 mph2.6 kmh 29.46 in997.6 mb 0.00 in0.0 mm 0.00 in/hr0.0 mm/hr 0.00 in0.0 mm
02:30 AM 65.8°F18.8°C 56.6°F13.7°C 72% Calm Calm 0.7 mph1.1 kmh 29.46 in997.6 mb 0.00 in0.0 mm 0.00 in/hr0.0 mm/hr 0.00 in0.0 mm
02:35 AM 65.7°F18.7°C 56.4°F13.6°C 72% Calm Calm 0.7 mph1.1 kmh 29.46 in997.6 mb 0.00 in0.0 mm 0.00 in/hr0.0 mm/hr 0.00 in0.0 mm
02:40 AM 65.5°F18.6°C 56.2°F13.4°C 72% Calm Calm -- 29.46 in997.6 mb 0.00 in0.0 mm 0.00 in/hr0.0 mm/hr 0.00 in0.0 mm
02:45 AM 65.3°F18.5°C 56.1°F13.4°C 72% Calm Calm -- 29.45 in997.3 mb 0.00 in0.0 mm 0.00 in/hr0.0 mm/hr 0.00 in0.0 mm
02:50 AM 64.9°F18.3°C 55.7°F13.2°C 72% Calm Calm -- 29.46 in997.6 mb 0.00 in0.0 mm 0.00 in/hr0.0 mm/hr 0.00 in0.0 mm
02:55 AM 65.1°F18.4°C 56.3°F13.5°C 73% Calm Calm 1.6 mph2.6 kmh 29.46 in997.6 mb 0.00 in0.0 mm 0.00 in/hr0.0 mm/hr 0.00 in0.0 mm
03:00 AM 65.1°F18.4°C 56.3°F13.5°C 73% Calm Calm 1.6 mph2.6 kmh 29.46 in997.6 mb 0.00 in0.0 mm 0.00 in/hr0.0 mm/hr 0.00 in0.0 mm
03:05 AM 65.1°F18.4°C 56.3°F13.5°C 73% Calm Calm 0.7 mph1.1 kmh 29.46 in997.6 mb 0.00 in0.0 mm 0.00 in/hr0.0 mm/hr 0.00 in0.0 mm
03:10 AM 64.9°F18.3°C 56.5°F13.6°C 74% Calm Calm -- 29.45 in997.3 mb 0.00 in0.0 mm 0.00 in/hr0.0 mm/hr 0.00 in0.0 mm
03:15 AM 64.9°F18.3°C 56.5°F13.6°C 74% Calm Calm -- 29.45 in997.3 mb 0.00 in0.0 mm 0.00 in/hr0.0 mm/hr 0.00 in0.0 mm
03:20 AM 64.8°F18.2°C 56.3°F13.5°C 74% Calm Calm 0.7 mph1.1 kmh 29.45 in997.3 mb 0.00 in0.0 mm 0.00 in/hr0.0 mm/hr 0.00 in0.0 mm
03:25 AM 64.8°F18.2°C 56.3°F13.5°C 74% Calm Calm 0.7 mph1.1 kmh 29.45 in997.3 mb 0.00 in0.0 mm 0.00 in/hr0.0 mm/hr 0.00 in0.0 mm
03:30 AM 64.9°F18.3°C 56.5°F13.6°C 74% Calm Calm 0.7 mph1.1 kmh 29.44 in997.0 mb 0.00 in0.0 mm 0.00 in/hr0.0 mm/hr 0.00 in0.0 mm
03:35 AM 64.9°F18.3°C 56.5°F13.6°C 74% 0.7 mph N1.1 kmh N 1.6 mph2.6 kmh 29.44 in997.0 mb 0.00 in0.0 mm 0.00 in/hr0.0 mm/hr 0.00 in0.0 mm
03:40 AM 64.8°F18.2°C 56.7°F13.7°C 75% Calm Calm 1.6 mph2.6 kmh 29.44 in997.0 mb 0.00 in0.0 mm 0.00 in/hr0.0 mm/hr 0.00 in0.0 mm
03:45 AM 64.6°F18.1°C 56.5°F13.6°C 75% Calm Calm 1.6 mph2.6 kmh 29.44 in997.0 mb 0.00 in0.0 mm 0.00 in/hr0.0 mm/hr 0.00 in0.0 mm
03:50 AM 64.4°F18.0°C 56.3°F13.5°C 75% Calm Calm -- 29.44 in997.0 mb 0.00 in0.0 mm 0.00 in/hr0.0 mm/hr 0.00 in0.0 mm
03:55 AM 64.0°F17.8°C 56.3°F13.5°C 76% Calm Calm -- 29.45 in997.3 mb 0.00 in0.0 mm 0.00 in/hr0.0 mm/hr 0.00 in0.0 mm
04:00 AM 64.0°F17.8°C 56.7°F13.7°C 77% Calm Calm 0.7 mph1.1 kmh 29.44 in997.0 mb 0.00 in0.0 mm 0.00 in/hr0.0 mm/hr 0.00 in0.0 mm
04:05 AM 64.0°F17.8°C 56.7°F13.7°C 77% Calm Calm 0.7 mph1.1 kmh 29.44 in997.0 mb 0.00 in0.0 mm 0.00 in/hr0.0 mm/hr 0.00 in0.0 mm
04:10 AM 63.9°F17.7°C 56.9°F13.8°C 78% Calm Calm 3.1 mph5.0 kmh 29.44 in997.0 mb 0.00 in0.0 mm 0.00 in/hr0.0 mm/hr 0.00 in0.0 mm
04:15 AM 63.9°F17.7°C 57.2°F14.0°C 79% Calm Calm 3.1 mph5.0 kmh 29.44 in997.0 mb 0.00 in0.0 mm 0.00 in/hr0.0 mm/hr 0.00 in0.0 mm
04:20 AM 63.7°F17.6°C 57.8°F14.3°C 81% 0.7 mph NNE1.1 kmh NNE 4.5 mph7.2 kmh 29.44 in997.0 mb 0.00 in0.0 mm 0.00 in/hr0.0 mm/hr 0.00 in0.0 mm
04:25 AM 63.7°F17.6°C 57.8°F14.3°C 81% 0.7 mph N1.1 kmh N 4.5 mph7.2 kmh 29.44 in997.0 mb 0.00 in0.0 mm 0.00 in/hr0.0 mm/hr 0.00 in0.0 mm
04:30 AM 63.5°F17.5°C 57.6°F14.2°C 81% 0.7 mph N1.1 kmh N 4.5 mph7.2 kmh 29.44 in997.0 mb 0.00 in0.0 mm 0.00 in/hr0.0 mm/hr 0.00 in0.0 mm
04:35 AM 63.3°F17.4°C 57.4°F14.1°C 81% Calm Calm 2.2 mph3.5 kmh 29.44 in997.0 mb 0.00 in0.0 mm 0.00 in/hr0.0 mm/hr 0.00 in0.0 mm
04:40 AM 63.0°F17.2°C 57.1°F13.9°C 81% Calm Calm 1.6 mph2.6 kmh 29.44 in997.0 mb 0.00 in0.0 mm 0.00 in/hr0.0 mm/hr 0.00 in0.0 mm
04:45 AM 62.8°F17.1°C 56.9°F13.8°C 81% Calm Calm 0.7 mph1.1 kmh 29.44 in997.0 mb 0.00 in0.0 mm 0.00 in/hr0.0 mm/hr 0.00 in0.0 mm
04:50 AM 62.8°F17.1°C 57.2°F14.0°C 82% Calm Calm 0.7 mph1.1 kmh 29.44 in997.0 mb 0.00 in0.0 mm 0.00 in/hr0.0 mm/hr 0.00 in0.0 mm
04:55 AM 62.8°F17.1°C 57.6°F14.2°C 83% Calm Calm 0.7 mph1.1 kmh 29.44 in997.0 mb 0.00 in0.0 mm 0.00 in/hr0.0 mm/hr 0.00 in0.0 mm
05:00 AM 62.8°F17.1°C 57.6°F14.2°C 83% Calm Calm 0.7 mph1.1 kmh 29.44 in997.0 mb 0.00 in0.0 mm 0.00 in/hr0.0 mm/hr 0.00 in0.0 mm
05:05 AM 62.8°F17.1°C 57.6°F14.2°C 83% Calm Calm 0.7 mph1.1 kmh 29.44 in997.0 mb 0.00 in0.0 mm 0.00 in/hr0.0 mm/hr 0.00 in0.0 mm
05:10 AM 62.6°F17.0°C 57.7°F14.3°C 84% Calm Calm 0.7 mph1.1 kmh 29.44 in997.0 mb 0.00 in0.0 mm 0.00 in/hr0.0 mm/hr 0.00 in0.0 mm
05:15 AM 62.4°F16.9°C 57.5°F14.2°C 84% Calm Calm 0.7 mph1.1 kmh 29.44 in997.0 mb 0.00 in0.0 mm 0.00 in/hr0.0 mm/hr 0.00 in0.0 mm
05:20 AM 62.4°F16.9°C 57.9°F14.4°C 85% Calm Calm 0.7 mph1.1 kmh 29.44 in997.0 mb 0.00 in0.0 mm 0.00 in/hr0.0 mm/hr 0.00 in0.0 mm
05:25 AM 62.2°F16.8°C 57.7°F14.3°C 85% Calm Calm 0.7 mph1.1 kmh 29.44 in997.0 mb 0.00 in0.0 mm 0.00 in/hr0.0 mm/hr 0.00 in0.0 mm
05:30 AM 62.2°F16.8°C 58.0°F14.4°C 86% Calm Calm 2.2 mph3.5 kmh 29.44 in997.0 mb 0.00 in0.0 mm 0.00 in/hr0.0 mm/hr 0.00 in0.0 mm
05:35 AM 62.2°F16.8°C 58.0°F14.4°C 86% Calm Calm 2.2 mph3.5 kmh 29.44 in997.0 mb 0.00 in0.0 mm 0.00 in/hr0.0 mm/hr 0.00 in0.0 mm
05:40 AM 62.4°F16.9°C 58.2°F14.6°C 86% Calm Calm 2.2 mph3.5 kmh 29.43 in996.6 mb 0.00 in0.0 mm 0.00 in/hr0.0 mm/hr 0.00 in0.0 mm
05:45 AM 62.4°F16.9°C 58.5°F14.7°C 87% 0.7 mph NE1.1 kmh NE 2.2 mph3.5 kmh 29.44 in997.0 mb 0.00 in0.0 mm 0.00 in/hr0.0 mm/hr 0.00 in0.0 mm
05:50 AM 62.4°F16.9°C 58.5°F14.7°C 87% Calm Calm 2.2 mph3.5 kmh 29.44 in997.0 mb 0.00 in0.0 mm 0.00 in/hr0.0 mm/hr 0.00 in0.0 mm
05:55 AM 62.2°F16.8°C 58.3°F14.6°C 87% Calm Calm 2.2 mph3.5 kmh 29.44 in997.0 mb 0.00 in0.0 mm 0.00 in/hr0.0 mm/hr 0.00 in0.0 mm
06:00 AM 62.2°F16.8°C 58.3°F14.6°C 87% Calm Calm 0.7 mph1.1 kmh 29.44 in997.0 mb 0.00 in0.0 mm 0.00 in/hr0.0 mm/hr 0.00 in0.0 mm
06:05 AM 62.2°F16.8°C 58.3°F14.6°C 87% Calm Calm -- 29.43 in996.6 mb 0.00 in0.0 mm 0.00 in/hr0.0 mm/hr 0.00 in0.0 mm
06:10 AM 62.1°F16.7°C 58.5°F14.7°C 88% Calm Calm 0.7 mph1.1 kmh 29.43 in996.6 mb 0.00 in0.0 mm 0.00 in/hr0.0 mm/hr 0.00 in0.0 mm
06:15 AM 61.9°F16.6°C 58.3°F14.6°C 88% Calm Calm 0.7 mph1.1 kmh 29.43 in996.6 mb 0.00 in0.0 mm 0.00 in/hr0.0 mm/hr 0.00 in0.0 mm
06:20 AM 61.7°F16.5°C 58.4°F14.7°C 89% Calm Calm 0.7 mph1.1 kmh 29.44 in997.0 mb 0.00 in0.0 mm 0.00 in/hr0.0 mm/hr 0.00 in0.0 mm
06:25 AM 61.5°F16.4°C 58.3°F14.6°C 89% Calm Calm 0.7 mph1.1 kmh 29.44 in997.0 mb 0.00 in0.0 mm 0.00 in/hr0.0 mm/hr 0.00 in0.0 mm
06:30 AM 61.5°F16.4°C 58.3°F14.6°C 89% Calm Calm -- 29.44 in997.0 mb 0.00 in0.0 mm 0.00 in/hr0.0 mm/hr 0.00 in0.0 mm
06:35 AM 61.5°F16.4°C 58.6°F14.8°C 90% Calm Calm -- 29.43 in996.6 mb 0.00 in0.0 mm 0.00 in/hr0.0 mm/hr 0.00 in0.0 mm
06:40 AM 61.5°F16.4°C 58.9°F14.9°C 91% Calm Calm 0.7 mph1.1 kmh 29.43 in996.6 mb 0.00 in0.0 mm 0.00 in/hr0.0 mm/hr 0.00 in0.0 mm
06:45 AM 61.5°F16.4°C 58.9°F14.9°C 91% Calm Calm 0.7 mph1.1 kmh 29.43 in996.6 mb 0.00 in0.0 mm 0.00 in/hr0.0 mm/hr 0.00 in0.0 mm
06:50 AM 61.2°F16.2°C 58.8°F14.9°C 92% Calm Calm -- 29.43 in996.6 mb 0.00 in0.0 mm 0.00 in/hr0.0 mm/hr 0.00 in0.0 mm
06:55 AM 61.2°F16.2°C 59.1°F15.1°C 93% Calm Calm 0.7 mph1.1 kmh 29.43 in996.6 mb 0.00 in0.0 mm 0.00 in/hr0.0 mm/hr 0.00 in0.0 mm
07:00 AM 61.2°F16.2°C 59.4°F15.2°C 94% Calm Calm 1.6 mph2.6 kmh 29.43 in996.6 mb 0.00 in0.0 mm 0.00 in/hr0.0 mm/hr 0.00 in0.0 mm
07:05 AM 61.2°F16.2°C 59.4°F15.2°C 94% Calm Calm 1.6 mph2.6 kmh 29.42 in996.3 mb 0.00 in0.0 mm 0.00 in/hr0.0 mm/hr 0.00 in0.0 mm
07:10 AM 61.3°F16.3°C 59.9°F15.5°C 95% Calm Calm 1.6 mph2.6 kmh 29.43 in996.6 mb 0.00 in0.0 mm 0.00 in/hr0.0 mm/hr 0.00 in0.0 mm
07:15 AM 61.5°F16.4°C 60.4°F15.8°C 96% Calm Calm 3.1 mph5.0 kmh 29.43 in996.6 mb 0.00 in0.0 mm 0.00 in/hr0.0 mm/hr 0.00 in0.0 mm
07:20 AM 61.5°F16.4°C 60.7°F15.9°C 97% Calm Calm 3.1 mph5.0 kmh 29.43 in996.6 mb 0.00 in0.0 mm 0.00 in/hr0.0 mm/hr 0.00 in0.0 mm
07:25 AM 61.5°F16.4°C 60.7°F15.9°C 97% 0.7 mph NNE1.1 kmh NNE 1.6 mph2.6 kmh 29.43 in996.6 mb 0.00 in0.0 mm 0.00 in/hr0.0 mm/hr 0.00 in0.0 mm
07:30 AM 61.5°F16.4°C 61.0°F16.1°C 98% Calm Calm 1.6 mph2.6 kmh 29.43 in996.6 mb 0.00 in0.0 mm 0.00 in/hr0.0 mm/hr 0.00 in0.0 mm
07:35 AM 61.5°F16.4°C 61.0°F16.1°C 98% Calm Calm 1.6 mph2.6 kmh 29.44 in997.0 mb 0.00 in0.0 mm 0.00 in/hr0.0 mm/hr 0.00 in0.0 mm
07:40 AM 61.5°F16.4°C 61.3°F16.3°C 99% Calm Calm 3.1 mph5.0 kmh 29.44 in997.0 mb 0.00 in0.0 mm 0.00 in/hr0.0 mm/hr 0.00 in0.0 mm
07:45 AM 61.5°F16.4°C 61.3°F16.3°C 99% Calm Calm 3.1 mph5.0 kmh 29.44 in997.0 mb 0.00 in0.0 mm 0.00 in/hr0.0 mm/hr 0.00 in0.0 mm
07:50 AM 61.9°F16.6°C 61.6°F16.4°C 99% Calm Calm 3.1 mph5.0 kmh 29.44 in997.0 mb 0.00 in0.0 mm 0.00 in/hr0.0 mm/hr 0.00 in0.0 mm
07:55 AM 62.1°F16.7°C 61.8°F16.6°C 99% 0.7 mph NNE1.1 kmh NNE 3.1 mph5.0 kmh 29.44 in997.0 mb 0.00 in0.0 mm 0.00 in/hr0.0 mm/hr 0.00 in0.0 mm
08:00 AM 62.2°F16.8°C 62.0°F16.7°C 99% Calm Calm 3.1 mph5.0 kmh 29.44 in997.0 mb 0.00 in0.0 mm 0.00 in/hr0.0 mm/hr 0.00 in0.0 mm
08:05 AM 62.2°F16.8°C 62.0°F16.7°C 99% Calm Calm 3.1 mph5.0 kmh 29.44 in997.0 mb 0.00 in0.0 mm 0.00 in/hr0.0 mm/hr 0.00 in0.0 mm
08:10 AM 63.0°F17.2°C 62.1°F16.7°C 97% 0.7 mph NE1.1 kmh NE 1.6 mph2.6 kmh 29.44 in997.0 mb 0.00 in0.0 mm 0.00 in/hr0.0 mm/hr 0.00 in0.0 mm
08:15 AM 63.3°F17.4°C 62.2°F16.8°C 96% Calm Calm 1.6 mph2.6 kmh 29.44 in997.0 mb 0.00 in0.0 mm 0.00 in/hr0.0 mm/hr 0.00 in0.0 mm
08:20 AM 63.7°F17.6°C 62.5°F16.9°C 96% Calm Calm 1.6 mph2.6 kmh 29.44 in997.0 mb 0.00 in0.0 mm 0.00 in/hr0.0 mm/hr 0.00 in0.0 mm
08:25 AM 64.0°F17.8°C 62.6°F17.0°C 95% 0.7 mph NNE1.1 kmh NNE 1.6 mph2.6 kmh 29.44 in997.0 mb 0.00 in0.0 mm 0.00 in/hr0.0 mm/hr 0.00 in0.0 mm
08:30 AM 64.0°F17.8°C 62.3°F16.8°C 94% Calm Calm 1.6 mph2.6 kmh 29.43 in996.6 mb 0.00 in0.0 mm 0.00 in/hr0.0 mm/hr 0.00 in0.0 mm
08:35 AM 64.2°F17.9°C 62.8°F17.1°C 95% 0.7 mph NNE1.1 kmh NNE 2.2 mph3.5 kmh 29.44 in997.0 mb 0.00 in0.0 mm 0.00 in/hr0.0 mm/hr 0.00 in0.0 mm
08:40 AM 64.2°F17.9°C 62.8°F17.1°C 95% Calm Calm 3.1 mph5.0 kmh 29.44 in997.0 mb 0.00 in0.0 mm 0.00 in/hr0.0 mm/hr 0.00 in0.0 mm
08:45 AM 64.4°F18.0°C 63.0°F17.2°C 95% 1.6 mph NE2.6 kmh NE 3.1 mph5.0 kmh 29.44 in997.0 mb 0.00 in0.0 mm 0.00 in/hr0.0 mm/hr 0.00 in0.0 mm
08:50 AM 64.6°F18.1°C 63.1°F17.3°C 95% 1.6 mph N2.6 kmh N 3.8 mph6.1 kmh 29.44 in997.0 mb 0.00 in0.0 mm 0.00 in/hr0.0 mm/hr 0.00 in0.0 mm
08:55 AM 64.6°F18.1°C 63.1°F17.3°C 95% 1.6 mph N2.6 kmh N 4.5 mph7.2 kmh 29.44 in997.0 mb 0.00 in0.0 mm 0.00 in/hr0.0 mm/hr 0.00 in0.0 mm
09:00 AM 64.6°F18.1°C 63.1°F17.3°C 95% 0.7 mph NNW1.1 kmh NNW 5.4 mph8.7 kmh 29.45 in997.3 mb 0.00 in0.0 mm 0.00 in/hr0.0 mm/hr 0.00 in0.0 mm
09:05 AM 64.6°F18.1°C 63.1°F17.3°C 95% 0.7 mph NW1.1 kmh NW 5.4 mph8.7 kmh 29.44 in997.0 mb 0.00 in0.0 mm 0.00 in/hr0.0 mm/hr 0.00 in0.0 mm
09:10 AM 64.8°F18.2°C 63.6°F17.6°C 96% 1.6 mph N2.6 kmh N 2.2 mph3.5 kmh 29.44 in997.0 mb 0.00 in0.0 mm 0.00 in/hr0.0 mm/hr 0.00 in0.0 mm
09:15 AM 64.8°F18.2°C 63.6°F17.6°C 96% Calm Calm 2.2 mph3.5 kmh 29.45 in997.3 mb 0.00 in0.0 mm 0.00 in/hr0.0 mm/hr 0.00 in0.0 mm
09:20 AM 64.8°F18.2°C 63.9°F17.7°C 97% Calm Calm 3.1 mph5.0 kmh 29.44 in997.0 mb 0.00 in0.0 mm 0.00 in/hr0.0 mm/hr 0.00 in0.0 mm
09:25 AM 64.9°F18.3°C 64.1°F17.8°C 97% 3.1 mph NE5.0 kmh NE 5.4 mph8.7 kmh 29.44 in997.0 mb 0.00 in0.0 mm 0.00 in/hr0.0 mm/hr 0.00 in0.0 mm
09:30 AM 64.9°F18.3°C 64.1°F17.8°C 97% 0.7 mph N1.1 kmh N 6.0 mph9.7 kmh 29.45 in997.3 mb 0.00 in0.0 mm 0.00 in/hr0.0 mm/hr 0.00 in0.0 mm
09:35 AM 65.1°F18.4°C 64.6°F18.1°C 98% 1.6 mph N2.6 kmh N 6.0 mph9.7 kmh 29.45 in997.3 mb 0.00 in0.0 mm 0.00 in/hr0.0 mm/hr 0.00 in0.0 mm
09:40 AM 65.3°F18.5°C 64.5°F18.1°C 97% 3.8 mph NNE6.1 kmh NNE 6.9 mph11.1 kmh 29.45 in997.3 mb 0.00 in0.0 mm 0.00 in/hr0.0 mm/hr 0.00 in0.0 mm
09:45 AM 65.8°F18.8°C 65.0°F18.3°C 97% Calm Calm 7.6 mph12.2 kmh 29.45 in997.3 mb 0.00 in0.0 mm 0.00 in/hr0.0 mm/hr 0.00 in0.0 mm
09:50 AM 66.2°F19.0°C 65.4°F18.6°C 97% Calm Calm 7.6 mph12.2 kmh 29.44 in997.0 mb 0.00 in0.0 mm 0.00 in/hr0.0 mm/hr 0.00 in0.0 mm
09:55 AM 66.2°F19.0°C 65.1°F18.4°C 96% Calm Calm 6.0 mph9.7 kmh 29.45 in997.3 mb 0.00 in0.0 mm 0.00 in/hr0.0 mm/hr 0.00 in0.0 mm
10:00 AM 66.2°F19.0°C 65.1°F18.4°C 96% Calm Calm 5.4 mph8.7 kmh 29.45 in997.3 mb 0.00 in0.0 mm 0.00 in/hr0.0 mm/hr 0.00 in0.0 mm
10:05 AM 66.2°F19.0°C 65.1°F18.4°C 96% 0.7 mph NE1.1 kmh NE 6.0 mph9.7 kmh 29.45 in997.3 mb 0.00 in0.0 mm 0.00 in/hr0.0 mm/hr 0.00 in0.0 mm
10:10 AM 66.4°F19.1°C 65.2°F18.4°C 96% Calm Calm 6.0 mph9.7 kmh 29.45 in997.3 mb 0.00 in0.0 mm 0.00 in/hr0.0 mm/hr 0.00 in0.0 mm
10:15 AM 66.4°F19.1°C 64.9°F18.3°C 95% 0.7 mph NE1.1 kmh NE 2.2 mph3.5 kmh 29.45 in997.3 mb 0.00 in0.0 mm 0.00 in/hr0.0 mm/hr 0.00 in0.0 mm
10:20 AM 66.0°F18.9°C 64.9°F18.3°C 96% Calm Calm 4.5 mph7.2 kmh 29.45 in997.3 mb 0.00 in0.0 mm 0.00 in/hr0.0 mm/hr 0.00 in0.0 mm
10:25 AM 66.0°F18.9°C 64.9°F18.3°C 96% 2.2 mph N3.5 kmh N 5.4 mph8.7 kmh 29.45 in997.3 mb 0.00 in0.0 mm 0.00 in/hr0.0 mm/hr 0.00 in0.0 mm
10:30 AM 66.0°F18.9°C 65.2°F18.4°C 97% 1.6 mph N2.6 kmh N 6.0 mph9.7 kmh 29.45 in997.3 mb 0.00 in0.0 mm 0.00 in/hr0.0 mm/hr 0.00 in0.0 mm
10:35 AM 66.2°F19.0°C 65.4°F18.6°C 97% 3.1 mph N5.0 kmh N 6.0 mph9.7 kmh 29.45 in997.3 mb 0.00 in0.0 mm 0.00 in/hr0.0 mm/hr 0.00 in0.0 mm
10:40 AM 66.4°F19.1°C 65.5°F18.6°C 97% Calm Calm 6.9 mph11.1 kmh 29.44 in997.0 mb 0.00 in0.0 mm 0.00 in/hr0.0 mm/hr 0.00 in0.0 mm
10:45 AM 66.9°F19.4°C 65.8°F18.8°C 96% Calm Calm 6.9 mph11.1 kmh 29.45 in997.3 mb 0.00 in0.0 mm 0.00 in/hr0.0 mm/hr 0.00 in0.0 mm
10:50 AM 67.1°F19.5°C 66.0°F18.9°C 96% 0.7 mph N1.1 kmh N 5.4 mph8.7 kmh 29.45 in997.3 mb 0.00 in0.0 mm 0.00 in/hr0.0 mm/hr 0.00 in0.0 mm
10:55 AM 67.5°F19.7°C 66.0°F18.9°C 95% 1.6 mph NNE2.6 kmh NNE 4.5 mph7.2 kmh 29.45 in997.3 mb 0.00 in0.0 mm 0.00 in/hr0.0 mm/hr 0.00 in0.0 mm
11:00 AM 66.9°F19.4°C 65.2°F18.4°C 94% 0.7 mph N1.1 kmh N 6.9 mph11.1 kmh 29.45 in997.3 mb 0.00 in0.0 mm 0.00 in/hr0.0 mm/hr 0.00 in0.0 mm
11:05 AM 66.4°F19.1°C 64.9°F18.3°C 95% 3.1 mph N5.0 kmh N 6.9 mph11.1 kmh 29.45 in997.3 mb 0.00 in0.0 mm 0.00 in/hr0.0 mm/hr 0.00 in0.0 mm
11:11 AM 66.2°F19.0°C 65.4°F18.6°C 97% 0.7 mph NNE1.1 kmh NNE 6.0 mph9.7 kmh 29.45 in997.3 mb 0.00 in0.0 mm 0.00 in/hr0.0 mm/hr 0.00 in0.0 mm
11:15 AM 66.9°F19.4°C 66.1°F18.9°C 97% 1.6 mph NNE2.6 kmh NNE 6.0 mph9.7 kmh 29.45 in997.3 mb 0.00 in0.0 mm 0.00 in/hr0.0 mm/hr 0.00 in0.0 mm
11:20 AM 66.9°F19.4°C 66.1°F18.9°C 97% 1.6 mph E2.6 kmh E 5.4 mph8.7 kmh 29.46 in997.6 mb 0.00 in0.0 mm 0.00 in/hr0.0 mm/hr 0.00 in0.0 mm
11:25 AM 67.8°F19.9°C 66.1°F18.9°C 94% 2.2 mph NE3.5 kmh NE 6.9 mph11.1 kmh 29.46 in997.6 mb 0.00 in0.0 mm 0.00 in/hr0.0 mm/hr 0.00 in0.0 mm
11:30 AM 67.3°F19.6°C 65.5°F18.6°C 94% Calm Calm 6.9 mph11.1 kmh 29.46 in997.6 mb 0.00 in0.0 mm 0.00 in/hr0.0 mm/hr 0.00 in0.0 mm
11:35 AM 66.9°F19.4°C 65.5°F18.6°C 95% Calm Calm 6.9 mph11.1 kmh 29.46 in997.6 mb 0.00 in0.0 mm 0.00 in/hr0.0 mm/hr 0.00 in0.0 mm
11:40 AM 66.6°F19.2°C 64.8°F18.2°C 94% Calm Calm 5.4 mph8.7 kmh 29.46 in997.6 mb 0.00 in0.0 mm 0.00 in/hr0.0 mm/hr 0.00 in0.0 mm
11:45 AM 66.2°F19.0°C 64.8°F18.2°C 95% Calm Calm 2.2 mph3.5 kmh 29.46 in997.6 mb 0.00 in0.0 mm 0.00 in/hr0.0 mm/hr 0.00 in0.0 mm
11:50 AM 66.0°F18.9°C 64.9°F18.3°C 96% Calm Calm 4.5 mph7.2 kmh 29.46 in997.6 mb 0.00 in0.0 mm 0.00 in/hr0.0 mm/hr 0.00 in0.0 mm
11:55 AM 66.4°F19.1°C 65.5°F18.6°C 97% Calm Calm 4.5 mph7.2 kmh 29.46 in997.6 mb 0.00 in0.0 mm 0.00 in/hr0.0 mm/hr 0.00 in0.0 mm
12:00 PM 67.8°F19.9°C 67.0°F19.4°C 97% Calm Calm 4.5 mph7.2 kmh 29.46 in997.6 mb 0.00 in0.0 mm 0.00 in/hr0.0 mm/hr 0.00 in0.0 mm
12:05 PM 69.6°F20.9°C 68.5°F20.3°C 96% Calm Calm 3.1 mph5.0 kmh 29.46 in997.6 mb 0.00 in0.0 mm 0.00 in/hr0.0 mm/hr 0.00 in0.0 mm
12:10 PM 70.9°F21.6°C 67.5°F19.7°C 89% 1.6 mph NE2.6 kmh NE 4.5 mph7.2 kmh 29.45 in997.3 mb 0.00 in0.0 mm 0.00 in/hr0.0 mm/hr 0.00 in0.0 mm
12:15 PM 71.2°F21.8°C 67.2°F19.6°C 87% 6.0 mph NE9.7 kmh NE 9.8 mph15.8 kmh 29.45 in997.3 mb 0.00 in0.0 mm 0.00 in/hr0.0 mm/hr 0.00 in0.0 mm
12:20 PM 71.2°F21.8°C 67.2°F19.6°C 87% 6.0 mph NE9.7 kmh NE 9.8 mph15.8 kmh 29.44 in997.0 mb 0.00 in0.0 mm 0.00 in/hr0.0 mm/hr 0.00 in0.0 mm
12:25 PM 72.5°F22.5°C 68.1°F20.1°C 86% Calm Calm 9.8 mph15.8 kmh 29.44 in997.0 mb 0.00 in0.0 mm 0.00 in/hr0.0 mm/hr 0.00 in0.0 mm
12:30 PM 72.3°F22.4°C 67.3°F19.6°C 84% Calm Calm 9.8 mph15.8 kmh 29.44 in997.0 mb 0.00 in0.0 mm 0.00 in/hr0.0 mm/hr 0.00 in0.0 mm
12:35 PM 72.5°F22.5°C 68.1°F20.1°C 86% 0.7 mph NNW1.1 kmh NNW 7.6 mph12.2 kmh 29.44 in997.0 mb 0.00 in0.0 mm 0.00 in/hr0.0 mm/hr 0.00 in0.0 mm
12:40 PM 73.0°F22.8°C 67.6°F19.8°C 83% 0.7 mph W1.1 kmh W 4.5 mph7.2 kmh 29.44 in997.0 mb 0.00 in0.0 mm 0.00 in/hr0.0 mm/hr 0.00 in0.0 mm
12:45 PM 72.9°F22.7°C 67.1°F19.5°C 82% 4.5 mph N7.2 kmh N 6.9 mph11.1 kmh 29.43 in996.6 mb 0.00 in0.0 mm 0.00 in/hr0.0 mm/hr 0.00 in0.0 mm
12:50 PM 73.0°F22.8°C 68.0°F20.0°C 84% 1.6 mph N2.6 kmh N 7.6 mph12.2 kmh 29.43 in996.6 mb 0.00 in0.0 mm 0.00 in/hr0.0 mm/hr 0.00 in0.0 mm
12:55 PM 74.7°F23.7°C 68.8°F20.4°C 82% 0.7 mph NW1.1 kmh NW 7.6 mph12.2 kmh 29.43 in996.6 mb 0.00 in0.0 mm 0.00 in/hr0.0 mm/hr 0.00 in0.0 mm
01:00 PM 74.3°F23.5°C 67.8°F19.9°C 80% 0.7 mph N1.1 kmh N 6.9 mph11.1 kmh 29.43 in996.6 mb 0.00 in0.0 mm 0.00 in/hr0.0 mm/hr 0.00 in0.0 mm
01:05 PM 73.9°F23.3°C 68.5°F20.3°C 83% 0.7 mph NNE1.1 kmh NNE 6.0 mph9.7 kmh 29.43 in996.6 mb 0.00 in0.0 mm 0.00 in/hr0.0 mm/hr 0.00 in0.0 mm
01:10 PM 75.2°F24.0°C 68.6°F20.3°C 80% Calm Calm 6.0 mph9.7 kmh 29.43 in996.6 mb 0.00 in0.0 mm 0.00 in/hr0.0 mm/hr 0.00 in0.0 mm
01:15 PM 75.9°F24.4°C 69.0°F20.6°C 79% 2.2 mph ENE3.5 kmh ENE 5.4 mph8.7 kmh 29.42 in996.3 mb 0.00 in0.0 mm 0.00 in/hr0.0 mm/hr 0.00 in0.0 mm
01:20 PM 76.1°F24.5°C 68.4°F20.2°C 77% 1.6 mph NE2.6 kmh NE 6.9 mph11.1 kmh 29.42 in996.3 mb 0.00 in0.0 mm 0.00 in/hr0.0 mm/hr 0.00 in0.0 mm
01:25 PM 74.1°F23.4°C 67.2°F19.6°C 79% 0.7 mph N1.1 kmh N 6.9 mph11.1 kmh 29.42 in996.3 mb 0.00 in0.0 mm 0.00 in/hr0.0 mm/hr 0.00 in0.0 mm
01:30 PM 76.1°F24.5°C 69.5°F20.8°C 80% 0.7 mph NNE1.1 kmh NNE 4.5 mph7.2 kmh 29.42 in996.3 mb 0.00 in0.0 mm 0.00 in/hr0.0 mm/hr 0.00 in0.0 mm
01:35 PM 76.8°F24.9°C 70.2°F21.2°C 80% 0.7 mph N1.1 kmh N 2.2 mph3.5 kmh 29.42 in996.3 mb 0.00 in0.0 mm 0.00 in/hr0.0 mm/hr 0.00 in0.0 mm
01:40 PM 76.8°F24.9°C 70.2°F21.2°C 80% 0.7 mph N1.1 kmh N 2.2 mph3.5 kmh 29.42 in996.3 mb 0.00 in0.0 mm 0.00 in/hr0.0 mm/hr 0.00 in0.0 mm
01:45 PM 77.2°F25.1°C 67.9°F19.9°C 73% 1.6 mph N2.6 kmh N 3.8 mph6.1 kmh 29.42 in996.3 mb 0.00 in0.0 mm 0.00 in/hr0.0 mm/hr 0.00 in0.0 mm
01:50 PM 76.3°F24.6°C 68.2°F20.1°C 76% 1.6 mph NNE2.6 kmh NNE 3.8 mph6.1 kmh 29.42 in996.3 mb 0.00 in0.0 mm 0.00 in/hr0.0 mm/hr 0.00 in0.0 mm
01:55 PM 77.5°F25.3°C 69.0°F20.6°C 75% 1.6 mph NNE2.6 kmh NNE 3.8 mph6.1 kmh 29.42 in996.3 mb 0.00 in0.0 mm 0.00 in/hr0.0 mm/hr 0.00 in0.0 mm
02:00 PM 79.0°F26.1°C 68.8°F20.4°C 71% 1.6 mph NNE2.6 kmh NNE 4.5 mph7.2 kmh 29.41 in995.9 mb 0.00 in0.0 mm 0.00 in/hr0.0 mm/hr 0.00 in0.0 mm
02:05 PM 79.7°F26.5°C 68.3°F20.2°C 68% 1.6 mph N2.6 kmh N 4.5 mph7.2 kmh 29.41 in995.9 mb 0.00 in0.0 mm 0.00 in/hr0.0 mm/hr 0.00 in0.0 mm
02:10 PM 81.1°F27.3°C 68.3°F20.2°C 65% 1.6 mph N2.6 kmh N 5.4 mph8.7 kmh 29.41 in995.9 mb 0.00 in0.0 mm 0.00 in/hr0.0 mm/hr 0.00 in0.0 mm
02:15 PM 79.0°F26.1°C 67.1°F19.5°C 67% 1.6 mph NE2.6 kmh NE 6.0 mph9.7 kmh 29.41 in995.9 mb 0.00 in0.0 mm 0.00 in/hr0.0 mm/hr 0.00 in0.0 mm
02:20 PM 79.0°F26.1°C 67.1°F19.5°C 67% 1.6 mph NE2.6 kmh NE 6.0 mph9.7 kmh 29.41 in995.9 mb 0.00 in0.0 mm 0.00 in/hr0.0 mm/hr 0.00 in0.0 mm
02:25 PM 77.7°F25.4°C 67.6°F19.8°C 71% 0.7 mph NE1.1 kmh NE 3.8 mph6.1 kmh 29.42 in996.3 mb 0.00 in0.0 mm 0.00 in/hr0.0 mm/hr 0.00 in0.0 mm
02:30 PM 78.4°F25.8°C 68.7°F20.4°C 72% 1.6 mph NNE2.6 kmh NNE 4.5 mph7.2 kmh 29.41 in995.9 mb 0.00 in0.0 mm 0.00 in/hr0.0 mm/hr 0.00 in0.0 mm
02:35 PM 78.8°F26.0°C 68.2°F20.1°C 70% 1.6 mph NNE2.6 kmh NNE 6.0 mph9.7 kmh 29.42 in996.3 mb 0.00 in0.0 mm 0.00 in/hr0.0 mm/hr 0.00 in0.0 mm
02:40 PM 79.3°F26.3°C 67.9°F19.9°C 68% 1.6 mph NE2.6 kmh NE 6.0 mph9.7 kmh 29.43 in996.6 mb 0.00 in0.0 mm 0.00 in/hr0.0 mm/hr 0.00 in0.0 mm
02:45 PM 79.3°F26.3°C 68.3°F20.2°C 69% 0.7 mph NE1.1 kmh NE 9.2 mph14.8 kmh 29.42 in996.3 mb 0.00 in0.0 mm 0.00 in/hr0.0 mm/hr 0.00 in0.0 mm
02:50 PM 80.1°F26.7°C 67.7°F19.8°C 66% 1.6 mph NE2.6 kmh NE 9.2 mph14.8 kmh 29.42 in996.3 mb 0.00 in0.0 mm 0.00 in/hr0.0 mm/hr 0.00 in0.0 mm
02:55 PM 79.9°F26.6°C 67.1°F19.5°C 65% 1.6 mph NNE2.6 kmh NNE 8.3 mph13.4 kmh 29.42 in996.3 mb 0.00 in0.0 mm 0.00 in/hr0.0 mm/hr 0.00 in0.0 mm
03:00 PM 79.9°F26.6°C 66.7°F19.3°C 64% 0.7 mph NNE1.1 kmh NNE 8.3 mph13.4 kmh 29.41 in995.9 mb 0.00 in0.0 mm 0.00 in/hr0.0 mm/hr 0.00 in0.0 mm
03:05 PM 79.9°F26.6°C 66.7°F19.3°C 64% 0.7 mph NE1.1 kmh NE 5.4 mph8.7 kmh 29.41 in995.9 mb 0.00 in0.0 mm 0.00 in/hr0.0 mm/hr 0.00 in0.0 mm
03:10 PM 79.9°F26.6°C 67.1°F19.5°C 65% Calm Calm 3.8 mph6.1 kmh 29.41 in995.9 mb 0.00 in0.0 mm 0.00 in/hr0.0 mm/hr 0.00 in0.0 mm
03:15 PM 80.4°F26.9°C 67.2°F19.6°C 64% 2.2 mph NE3.5 kmh NE 6.0 mph9.7 kmh 29.41 in995.9 mb 0.00 in0.0 mm 0.00 in/hr0.0 mm/hr 0.00 in0.0 mm
03:20 PM 79.9°F26.6°C 66.2°F19.0°C 63% 0.7 mph NE1.1 kmh NE 6.0 mph9.7 kmh 29.41 in995.9 mb 0.00 in0.0 mm 0.00 in/hr0.0 mm/hr 0.00 in0.0 mm
03:25 PM 80.4°F26.9°C 67.2°F19.6°C 64% 0.7 mph NE1.1 kmh NE 6.0 mph9.7 kmh 29.41 in995.9 mb 0.00 in0.0 mm 0.00 in/hr0.0 mm/hr 0.00 in0.0 mm
03:30 PM 80.4°F26.9°C 66.7°F19.3°C 63% 1.6 mph NE2.6 kmh NE 6.0 mph9.7 kmh 29.41 in995.9 mb 0.00 in0.0 mm 0.00 in/hr0.0 mm/hr 0.00 in0.0 mm
03:35 PM 79.0°F26.1°C 65.8°F18.8°C 64% 3.1 mph NE5.0 kmh NE 9.8 mph15.8 kmh 29.40 in995.6 mb 0.00 in0.0 mm 0.00 in/hr0.0 mm/hr 0.00 in0.0 mm
03:40 PM 77.7°F25.4°C 65.9°F18.8°C 67% 1.6 mph NE2.6 kmh NE 9.8 mph15.8 kmh 29.41 in995.9 mb 0.00 in0.0 mm 0.00 in/hr0.0 mm/hr 0.00 in0.0 mm
03:45 PM 77.7°F25.4°C 66.4°F19.1°C 68% 1.6 mph NE2.6 kmh NE 9.8 mph15.8 kmh 29.40 in995.6 mb 0.00 in0.0 mm 0.00 in/hr0.0 mm/hr 0.00 in0.0 mm
03:50 PM 78.6°F25.9°C 66.8°F19.3°C 67% 1.6 mph ENE2.6 kmh ENE 9.2 mph14.8 kmh 29.40 in995.6 mb 0.00 in0.0 mm 0.00 in/hr0.0 mm/hr 0.00 in0.0 mm
03:55 PM 79.0°F26.1°C 66.7°F19.3°C 66% 0.7 mph NE1.1 kmh NE 7.6 mph12.2 kmh 29.40 in995.6 mb 0.00 in0.0 mm 0.00 in/hr0.0 mm/hr 0.00 in0.0 mm
04:00 PM 80.1°F26.7°C 66.8°F19.3°C 64% 3.1 mph NE5.0 kmh NE 6.0 mph9.7 kmh 29.40 in995.6 mb 0.00 in0.0 mm 0.00 in/hr0.0 mm/hr 0.00 in0.0 mm
04:05 PM 80.1°F26.7°C 66.8°F19.3°C 64% 3.1 mph NE5.0 kmh NE 6.0 mph9.7 kmh 29.39 in995.3 mb 0.00 in0.0 mm 0.00 in/hr0.0 mm/hr 0.00 in0.0 mm
04:10 PM 80.8°F27.1°C 67.5°F19.7°C 64% 0.7 mph NE1.1 kmh NE 6.0 mph9.7 kmh 29.39 in995.3 mb 0.00 in0.0 mm 0.00 in/hr0.0 mm/hr 0.00 in0.0 mm
04:15 PM 81.1°F27.3°C 66.5°F19.2°C 61% 1.6 mph NE2.6 kmh NE 6.0 mph9.7 kmh 29.39 in995.3 mb 0.00 in0.0 mm 0.00 in/hr0.0 mm/hr 0.00 in0.0 mm
04:20 PM 81.1°F27.3°C 66.5°F19.2°C 61% 0.7 mph NE1.1 kmh NE 3.8 mph6.1 kmh 29.39 in995.3 mb 0.00 in0.0 mm 0.00 in/hr0.0 mm/hr 0.00 in0.0 mm
04:25 PM 79.2°F26.2°C 64.1°F17.8°C 60% 1.6 mph ENE2.6 kmh ENE 3.8 mph6.1 kmh 29.39 in995.3 mb 0.00 in0.0 mm 0.00 in/hr0.0 mm/hr 0.00 in0.0 mm
04:30 PM 77.2°F25.1°C 63.6°F17.6°C 63% 1.6 mph NE2.6 kmh NE 4.5 mph7.2 kmh 29.39 in995.3 mb 0.00 in0.0 mm 0.00 in/hr0.0 mm/hr 0.00 in0.0 mm
04:35 PM 75.7°F24.3°C 63.6°F17.6°C 66% 2.2 mph NE3.5 kmh NE 4.5 mph7.2 kmh 29.40 in995.6 mb 0.00 in0.0 mm 0.00 in/hr0.0 mm/hr 0.00 in0.0 mm
04:40 PM 76.3°F24.6°C 64.6°F18.1°C 67% 0.7 mph NE1.1 kmh NE 7.6 mph12.2 kmh 29.39 in995.3 mb 0.00 in0.0 mm 0.00 in/hr0.0 mm/hr 0.00 in0.0 mm
04:45 PM 77.2°F25.1°C 65.0°F18.3°C 66% 2.2 mph NE3.5 kmh NE 8.3 mph13.4 kmh 29.39 in995.3 mb 0.00 in0.0 mm 0.00 in/hr0.0 mm/hr 0.00 in0.0 mm
04:50 PM 77.9°F25.5°C 65.2°F18.4°C 65% 1.6 mph NE2.6 kmh NE 8.3 mph13.4 kmh 29.39 in995.3 mb 0.00 in0.0 mm 0.00 in/hr0.0 mm/hr 0.00 in0.0 mm
04:55 PM 78.4°F25.8°C 65.7°F18.7°C 65% 0.7 mph NE1.1 kmh NE 5.4 mph8.7 kmh 29.39 in995.3 mb 0.00 in0.0 mm 0.00 in/hr0.0 mm/hr 0.00 in0.0 mm
05:00 PM 78.4°F25.8°C 65.3°F18.5°C 64% 0.7 mph NE1.1 kmh NE 5.4 mph8.7 kmh 29.39 in995.3 mb 0.00 in0.0 mm 0.00 in/hr0.0 mm/hr 0.00 in0.0 mm
05:05 PM 78.4°F25.8°C 65.3°F18.5°C 64% 0.7 mph NE1.1 kmh NE 4.5 mph7.2 kmh 29.39 in995.3 mb 0.00 in0.0 mm 0.00 in/hr0.0 mm/hr 0.00 in0.0 mm
05:10 PM 77.5°F25.3°C 64.9°F18.3°C 65% 1.6 mph NE2.6 kmh NE 3.8 mph6.1 kmh 29.39 in995.3 mb 0.00 in0.0 mm 0.00 in/hr0.0 mm/hr 0.00 in0.0 mm
05:15 PM 76.6°F24.8°C 63.1°F17.3°C 63% 1.6 mph NE2.6 kmh NE 3.8 mph6.1 kmh 29.39 in995.3 mb 0.00 in0.0 mm 0.00 in/hr0.0 mm/hr 0.00 in0.0 mm
05:20 PM 76.3°F24.6°C 63.2°F17.3°C 64% 2.2 mph E3.5 kmh E 3.8 mph6.1 kmh 29.39 in995.3 mb 0.00 in0.0 mm 0.00 in/hr0.0 mm/hr 0.00 in0.0 mm
05:25 PM 75.2°F24.0°C 63.1°F17.3°C 66% 2.2 mph E3.5 kmh E 4.5 mph7.2 kmh 29.39 in995.3 mb 0.00 in0.0 mm 0.00 in/hr0.0 mm/hr 0.00 in0.0 mm
05:30 PM 74.8°F23.8°C 63.2°F17.3°C 67% 0.7 mph NE1.1 kmh NE 4.5 mph7.2 kmh 29.39 in995.3 mb 0.00 in0.0 mm 0.00 in/hr0.0 mm/hr 0.00 in0.0 mm
05:35 PM 76.5°F24.7°C 63.9°F17.7°C 65% 1.6 mph NE2.6 kmh NE 4.5 mph7.2 kmh 29.39 in995.3 mb 0.00 in0.0 mm 0.00 in/hr0.0 mm/hr 0.00 in0.0 mm
05:40 PM 76.8°F24.9°C 63.3°F17.4°C 63% 0.7 mph NE1.1 kmh NE 4.5 mph7.2 kmh 29.39 in995.3 mb 0.00 in0.0 mm 0.00 in/hr0.0 mm/hr 0.00 in0.0 mm
05:45 PM 76.8°F24.9°C 63.3°F17.4°C 63% 1.6 mph NNE2.6 kmh NNE 4.5 mph7.2 kmh 29.39 in995.3 mb 0.00 in0.0 mm 0.00 in/hr0.0 mm/hr 0.00 in0.0 mm
05:50 PM 76.3°F24.6°C 62.3°F16.8°C 62% 0.7 mph NNE1.1 kmh NNE 4.5 mph7.2 kmh 29.39 in995.3 mb 0.00 in0.0 mm 0.00 in/hr0.0 mm/hr 0.00 in0.0 mm
05:55 PM 76.3°F24.6°C 62.3°F16.8°C 62% 0.7 mph NE1.1 kmh NE 4.5 mph7.2 kmh 29.39 in995.3 mb 0.00 in0.0 mm 0.00 in/hr0.0 mm/hr 0.00 in0.0 mm
06:00 PM 75.0°F23.9°C 62.1°F16.7°C 64% 1.6 mph NE2.6 kmh NE 4.5 mph7.2 kmh 29.39 in995.3 mb 0.00 in0.0 mm 0.00 in/hr0.0 mm/hr 0.00 in0.0 mm
06:05 PM 74.8°F23.8°C 61.4°F16.3°C 63% Calm Calm 4.5 mph7.2 kmh 29.39 in995.3 mb 0.00 in0.0 mm 0.00 in/hr0.0 mm/hr 0.00 in0.0 mm
06:10 PM 75.2°F24.0°C 61.8°F16.6°C 63% 1.6 mph NNE2.6 kmh NNE 4.5 mph7.2 kmh 29.40 in995.6 mb 0.00 in0.0 mm 0.00 in/hr0.0 mm/hr 0.00 in0.0 mm
06:15 PM 75.4°F24.1°C 61.9°F16.6°C 63% Calm Calm 4.5 mph7.2 kmh 29.40 in995.6 mb 0.00 in0.0 mm 0.00 in/hr0.0 mm/hr 0.00 in0.0 mm
06:20 PM 75.4°F24.1°C 61.9°F16.6°C 63% Calm Calm 5.4 mph8.7 kmh 29.40 in995.6 mb 0.00 in0.0 mm 0.00 in/hr0.0 mm/hr 0.00 in0.0 mm
06:25 PM 75.2°F24.0°C 60.9°F16.1°C 61% 1.6 mph NE2.6 kmh NE 8.3 mph13.4 kmh 29.40 in995.6 mb 0.00 in0.0 mm 0.00 in/hr0.0 mm/hr 0.00 in0.0 mm
06:30 PM 74.3°F23.5°C 60.0°F15.6°C 61% 1.6 mph NE2.6 kmh NE 8.3 mph13.4 kmh 29.40 in995.6 mb 0.00 in0.0 mm 0.00 in/hr0.0 mm/hr 0.00 in0.0 mm
06:35 PM 73.6°F23.1°C 59.8°F15.4°C 62% 0.7 mph NE1.1 kmh NE 6.0 mph9.7 kmh 29.40 in995.6 mb 0.00 in0.0 mm 0.00 in/hr0.0 mm/hr 0.00 in0.0 mm
06:40 PM 72.9°F22.7°C 59.1°F15.1°C 62% 0.7 mph NE1.1 kmh NE 5.4 mph8.7 kmh 29.40 in995.6 mb 0.00 in0.0 mm 0.00 in/hr0.0 mm/hr 0.00 in0.0 mm
06:45 PM 72.0°F22.2°C 58.3°F14.6°C 62% 1.6 mph NE2.6 kmh NE 5.4 mph8.7 kmh 29.40 in995.6 mb 0.00 in0.0 mm 0.00 in/hr0.0 mm/hr 0.00 in0.0 mm
06:50 PM 71.6°F22.0°C 57.5°F14.2°C 61% 2.2 mph NE3.5 kmh NE 5.4 mph8.7 kmh 29.41 in995.9 mb 0.00 in0.0 mm 0.00 in/hr0.0 mm/hr 0.00 in0.0 mm
06:55 PM 71.4°F21.9°C 57.7°F14.3°C 62% 0.7 mph NE1.1 kmh NE 4.5 mph7.2 kmh 29.40 in995.6 mb 0.00 in0.0 mm 0.00 in/hr0.0 mm/hr 0.00 in0.0 mm
07:00 PM 70.9°F21.6°C 56.8°F13.8°C 61% 1.6 mph ENE2.6 kmh ENE 4.5 mph7.2 kmh 29.40 in995.6 mb 0.00 in0.0 mm 0.00 in/hr0.0 mm/hr 0.00 in0.0 mm
07:05 PM 70.3°F21.3°C 55.8°F13.2°C 60% Calm Calm 4.5 mph7.2 kmh 29.41 in995.9 mb 0.00 in0.0 mm 0.00 in/hr0.0 mm/hr 0.00 in0.0 mm
07:10 PM 70.0°F21.1°C 55.9°F13.3°C 61% 0.7 mph E1.1 kmh E 4.5 mph7.2 kmh 29.41 in995.9 mb 0.00 in0.0 mm 0.00 in/hr0.0 mm/hr 0.00 in0.0 mm
07:15 PM 69.4°F20.8°C 55.4°F13.0°C 61% Calm Calm 3.1 mph5.0 kmh 29.41 in995.9 mb 0.00 in0.0 mm 0.00 in/hr0.0 mm/hr 0.00 in0.0 mm
07:20 PM 69.3°F20.7°C 55.7°F13.2°C 62% 1.6 mph NE2.6 kmh NE 3.8 mph6.1 kmh 29.41 in995.9 mb 0.00 in0.0 mm 0.00 in/hr0.0 mm/hr 0.00 in0.0 mm
07:25 PM 68.9°F20.5°C 55.8°F13.2°C 63% 1.6 mph N2.6 kmh N 5.4 mph8.7 kmh 29.41 in995.9 mb 0.00 in0.0 mm 0.00 in/hr0.0 mm/hr 0.00 in0.0 mm
07:30 PM 68.9°F20.5°C 55.8°F13.2°C 63% Calm Calm 5.4 mph8.7 kmh 29.41 in995.9 mb 0.00 in0.0 mm 0.00 in/hr0.0 mm/hr 0.00 in0.0 mm
07:35 PM 68.4°F20.2°C 55.3°F12.9°C 63% Calm Calm 5.4 mph8.7 kmh 29.42 in996.3 mb 0.00 in0.0 mm 0.00 in/hr0.0 mm/hr 0.00 in0.0 mm
07:40 PM 68.0°F20.0°C 55.0°F12.8°C 63% Calm Calm 1.6 mph2.6 kmh 29.42 in996.3 mb 0.00 in0.0 mm 0.00 in/hr0.0 mm/hr 0.00 in0.0 mm
07:45 PM 67.8°F19.9°C 55.2°F12.9°C 64% Calm Calm 2.2 mph3.5 kmh 29.42 in996.3 mb 0.00 in0.0 mm 0.00 in/hr0.0 mm/hr 0.00 in0.0 mm
07:50 PM 67.8°F19.9°C 55.2°F12.9°C 64% Calm Calm 2.2 mph3.5 kmh 29.42 in996.3 mb 0.00 in0.0 mm 0.00 in/hr0.0 mm/hr 0.00 in0.0 mm
07:55 PM 66.9°F19.4°C 54.4°F12.4°C 64% Calm Calm 2.2 mph3.5 kmh 29.42 in996.3 mb 0.00 in0.0 mm 0.00 in/hr0.0 mm/hr 0.00 in0.0 mm
08:00 PM 66.6°F19.2°C 54.5°F12.5°C 65% 0.7 mph ENE1.1 kmh ENE 2.2 mph3.5 kmh 29.42 in996.3 mb 0.00 in0.0 mm 0.00 in/hr0.0 mm/hr 0.00 in0.0 mm
08:05 PM 66.6°F19.2°C 54.5°F12.5°C 65% 0.7 mph SSE1.1 kmh SSE 2.2 mph3.5 kmh 29.42 in996.3 mb 0.00 in0.0 mm 0.00 in/hr0.0 mm/hr 0.00 in0.0 mm
08:10 PM 65.7°F18.7°C 54.0°F12.2°C 66% Calm Calm 2.2 mph3.5 kmh 29.42 in996.3 mb 0.00 in0.0 mm 0.00 in/hr0.0 mm/hr 0.00 in0.0 mm
08:15 PM 65.1°F18.4°C 53.5°F11.9°C 66% Calm Calm 2.2 mph3.5 kmh 29.42 in996.3 mb 0.00 in0.0 mm 0.00 in/hr0.0 mm/hr 0.00 in0.0 mm
08:20 PM 64.8°F18.2°C 53.2°F11.8°C 66% Calm Calm 3.1 mph5.0 kmh 29.42 in996.3 mb 0.00 in0.0 mm 0.00 in/hr0.0 mm/hr 0.00 in0.0 mm
08:25 PM 64.4°F18.0°C 52.8°F11.6°C 66% Calm Calm 3.1 mph5.0 kmh 29.43 in996.6 mb 0.00 in0.0 mm 0.00 in/hr0.0 mm/hr 0.00 in0.0 mm
08:30 PM 63.7°F17.6°C 52.1°F11.2°C 66% Calm Calm 1.6 mph2.6 kmh 29.43 in996.6 mb 0.00 in0.0 mm 0.00 in/hr0.0 mm/hr 0.00 in0.0 mm
08:35 PM 63.3°F17.4°C 51.4°F10.8°C 65% Calm Calm 3.1 mph5.0 kmh 29.44 in997.0 mb 0.00 in0.0 mm 0.00 in/hr0.0 mm/hr 0.00 in0.0 mm
08:40 PM 63.0°F17.2°C 50.6°F10.3°C 64% 0.7 mph NE1.1 kmh NE 4.5 mph7.2 kmh 29.44 in997.0 mb 0.00 in0.0 mm 0.00 in/hr0.0 mm/hr 0.00 in0.0 mm
08:45 PM 62.8°F17.1°C 50.0°F10.0°C 63% 0.7 mph ENE1.1 kmh ENE 4.5 mph7.2 kmh 29.44 in997.0 mb 0.00 in0.0 mm 0.00 in/hr0.0 mm/hr 0.00 in0.0 mm
08:50 PM 62.4°F16.9°C 49.2°F9.6°C 62% Calm Calm 3.8 mph6.1 kmh 29.45 in997.3 mb 0.00 in0.0 mm 0.00 in/hr0.0 mm/hr 0.00 in0.0 mm
08:55 PM 61.9°F16.6°C 48.7°F9.3°C 62% Calm Calm 3.1 mph5.0 kmh 29.45 in997.3 mb 0.00 in0.0 mm 0.00 in/hr0.0 mm/hr 0.00 in0.0 mm
09:00 PM 61.5°F16.4°C 48.4°F9.1°C 62% Calm Calm 1.6 mph2.6 kmh 29.45 in997.3 mb 0.00 in0.0 mm 0.00 in/hr0.0 mm/hr 0.00 in0.0 mm
09:05 PM 60.8°F16.0°C 47.7°F8.7°C 62% Calm Calm 2.2 mph3.5 kmh 29.46 in997.6 mb 0.00 in0.0 mm 0.00 in/hr0.0 mm/hr 0.00 in0.0 mm
09:10 PM 60.3°F15.7°C 47.6°F8.7°C 63% Calm Calm 2.2 mph3.5 kmh 29.46 in997.6 mb 0.00 in0.0 mm 0.00 in/hr0.0 mm/hr 0.00 in0.0 mm
09:15 PM 59.9°F15.5°C 47.3°F8.5°C 63% Calm Calm 1.6 mph2.6 kmh 29.46 in997.6 mb 0.00 in0.0 mm 0.00 in/hr0.0 mm/hr 0.00 in0.0 mm
09:20 PM 59.5°F15.3°C 46.9°F8.3°C 63% 0.7 mph NE1.1 kmh NE 3.1 mph5.0 kmh 29.46 in997.6 mb 0.00 in0.0 mm 0.00 in/hr0.0 mm/hr 0.00 in0.0 mm
09:25 PM 59.5°F15.3°C 46.5°F8.1°C 62% Calm Calm 3.1 mph5.0 kmh 29.47 in998.0 mb 0.00 in0.0 mm 0.00 in/hr0.0 mm/hr 0.00 in0.0 mm
09:30 PM 59.4°F15.2°C 45.0°F7.2°C 59% Calm Calm 4.5 mph7.2 kmh 29.48 in998.3 mb 0.00 in0.0 mm 0.00 in/hr0.0 mm/hr 0.00 in0.0 mm
09:35 PM 59.4°F15.2°C 44.1°F6.7°C 57% Calm Calm 6.0 mph9.7 kmh 29.48 in998.3 mb 0.00 in0.0 mm 0.00 in/hr0.0 mm/hr 0.00 in0.0 mm
09:40 PM 59.2°F15.1°C 43.0°F6.1°C 55% 1.6 mph NE2.6 kmh NE 6.0 mph9.7 kmh 29.49 in998.6 mb 0.00 in0.0 mm 0.00 in/hr0.0 mm/hr 0.00 in0.0 mm
09:45 PM 59.0°F15.0°C 42.9°F6.1°C 55% Calm Calm 3.8 mph6.1 kmh 29.49 in998.6 mb 0.00 in0.0 mm 0.00 in/hr0.0 mm/hr 0.00 in0.0 mm
09:50 PM 59.0°F15.0°C 42.4°F5.8°C 54% Calm Calm 3.8 mph6.1 kmh 29.49 in998.6 mb 0.00 in0.0 mm 0.00 in/hr0.0 mm/hr 0.00 in0.0 mm
09:55 PM 58.5°F14.7°C 41.9°F5.5°C 54% Calm Calm 3.1 mph5.0 kmh 29.49 in998.6 mb 0.00 in0.0 mm 0.00 in/hr0.0 mm/hr 0.00 in0.0 mm
10:00 PM 57.9°F14.4°C 40.9°F4.9°C 53% 0.7 mph E1.1 kmh E 3.8 mph6.1 kmh 29.50 in999.0 mb 0.00 in0.0 mm 0.00 in/hr0.0 mm/hr 0.00 in0.0 mm
10:05 PM 57.9°F14.4°C 40.9°F4.9°C 53% 0.7 mph E1.1 kmh E 3.8 mph6.1 kmh 29.50 in999.0 mb 0.00 in0.0 mm 0.00 in/hr0.0 mm/hr 0.00 in0.0 mm
10:10 PM 57.7°F14.3°C 40.7°F4.8°C 53% Calm Calm 3.8 mph6.1 kmh 29.50 in999.0 mb 0.00 in0.0 mm 0.00 in/hr0.0 mm/hr 0.00 in0.0 mm
10:15 PM 57.4°F14.1°C 40.4°F4.7°C 53% Calm Calm 3.8 mph6.1 kmh 29.50 in999.0 mb 0.00 in0.0 mm 0.00 in/hr0.0 mm/hr 0.00 in0.0 mm
10:20 PM 57.0°F13.9°C 40.1°F4.5°C 53% Calm Calm 3.1 mph5.0 kmh 29.50 in999.0 mb 0.00 in0.0 mm 0.00 in/hr0.0 mm/hr 0.00 in0.0 mm
10:25 PM 56.7°F13.7°C 40.2°F4.6°C 54% Calm Calm 3.1 mph5.0 kmh 29.51 in999.3 mb 0.00 in0.0 mm 0.00 in/hr0.0 mm/hr 0.00 in0.0 mm
10:30 PM 56.5°F13.6°C 40.0°F4.4°C 54% Calm Calm 3.1 mph5.0 kmh 29.51 in999.3 mb 0.00 in0.0 mm 0.00 in/hr0.0 mm/hr 0.00 in0.0 mm
10:35 PM 56.3°F13.5°C 39.9°F4.4°C 54% Calm Calm 3.1 mph5.0 kmh 29.51 in999.3 mb 0.00 in0.0 mm 0.00 in/hr0.0 mm/hr 0.00 in0.0 mm
10:40 PM 55.9°F13.3°C 39.5°F4.2°C 54% Calm Calm 2.2 mph3.5 kmh 29.51 in999.3 mb 0.00 in0.0 mm 0.00 in/hr0.0 mm/hr 0.00 in0.0 mm
10:45 PM 55.6°F13.1°C 39.2°F4.0°C 54% Calm Calm 2.2 mph3.5 kmh 29.51 in999.3 mb 0.00 in0.0 mm 0.00 in/hr0.0 mm/hr 0.00 in0.0 mm
10:50 PM 55.4°F13.0°C 39.5°F4.2°C 55% 0.7 mph NE1.1 kmh NE 2.2 mph3.5 kmh 29.52 in999.7 mb 0.00 in0.0 mm 0.00 in/hr0.0 mm/hr 0.00 in0.0 mm
10:55 PM 55.2°F12.9°C 39.3°F4.1°C 55% Calm Calm 2.2 mph3.5 kmh 29.52 in999.7 mb 0.00 in0.0 mm 0.00 in/hr0.0 mm/hr 0.00 in0.0 mm
11:00 PM 54.7°F12.6°C 39.3°F4.1°C 56% Calm Calm 2.2 mph3.5 kmh 29.52 in999.7 mb 0.00 in0.0 mm 0.00 in/hr0.0 mm/hr 0.00 in0.0 mm
11:05 PM 54.7°F12.6°C 39.3°F4.1°C 56% Calm Calm 0.7 mph1.1 kmh 29.52 in999.7 mb 0.00 in0.0 mm 0.00 in/hr0.0 mm/hr 0.00 in0.0 mm
11:10 PM 54.0°F12.2°C 39.1°F3.9°C 57% Calm Calm 0.7 mph1.1 kmh 29.52 in999.7 mb 0.00 in0.0 mm 0.00 in/hr0.0 mm/hr 0.00 in0.0 mm
11:15 PM 53.6°F12.0°C 39.2°F4.0°C 58% Calm Calm 1.6 mph2.6 kmh 29.52 in999.7 mb 0.00 in0.0 mm 0.00 in/hr0.0 mm/hr 0.00 in0.0 mm
11:20 PM 53.4°F11.9°C 39.0°F3.9°C 58% Calm Calm 1.6 mph2.6 kmh 29.52 in999.7 mb 0.00 in0.0 mm 0.00 in/hr0.0 mm/hr 0.00 in0.0 mm
11:25 PM 53.2°F11.8°C 39.3°F4.1°C 59% Calm Calm 1.6 mph2.6 kmh 29.52 in999.7 mb 0.00 in0.0 mm 0.00 in/hr0.0 mm/hr 0.00 in0.0 mm
11:30 PM 52.9°F11.6°C 39.4°F4.1°C 60% Calm Calm 0.7 mph1.1 kmh 29.52 in999.7 mb 0.00 in0.0 mm 0.00 in/hr0.0 mm/hr 0.00 in0.0 mm
11:35 PM 52.7°F11.5°C 39.2°F4.0°C 60% Calm Calm 1.6 mph2.6 kmh 29.52 in999.7 mb 0.00 in0.0 mm 0.00 in/hr0.0 mm/hr 0.00 in0.0 mm
11:40 PM 52.5°F11.4°C 39.5°F4.2°C 61% Calm Calm 1.6 mph2.6 kmh 29.53 in1000.0 mb 0.00 in0.0 mm 0.00 in/hr0.0 mm/hr 0.00 in0.0 mm
11:45 PM 52.3°F11.3°C 39.7°F4.3°C 62% Calm Calm 3.1 mph5.0 kmh 29.52 in999.7 mb 0.00 in0.0 mm 0.00 in/hr0.0 mm/hr 0.00 in0.0 mm
11:50 PM 52.0°F11.1°C 39.4°F4.1°C 62% Calm Calm 3.1 mph5.0 kmh 29.52 in999.7 mb 0.00 in0.0 mm 0.00 in/hr0.0 mm/hr 0.00 in0.0 mm
11:55 PM 51.8°F11.0°C 39.2°F4.0°C 62% Calm Calm 2.2 mph3.5 kmh 29.52 in999.7 mb 0.00 in0.0 mm 0.00 in/hr0.0 mm/hr 0.00 in0.0 mm